sensor_id;sensor_type;location;lat;lon;timestamp;P1;durP1;ratioP1;P2;durP2;ratioP2
43626;SDS011;29217;52.586;13.442;2023-08-12T00:00:56;5.35;;;4.40;;
43626;SDS011;29217;52.586;13.442;2023-08-12T00:03:22;5.35;;;4.18;;
43626;SDS011;29217;52.586;13.442;2023-08-12T00:05:47;6.32;;;3.92;;
43626;SDS011;29217;52.586;13.442;2023-08-12T00:08:13;7.93;;;4.15;;
43626;SDS011;29217;52.586;13.442;2023-08-12T00:10:38;5.65;;;3.90;;
43626;SDS011;29217;52.586;13.442;2023-08-12T00:13:04;5.00;;;4.32;;
43626;SDS011;29217;52.586;13.442;2023-08-12T00:15:30;6.45;;;4.50;;
43626;SDS011;29217;52.586;13.442;2023-08-12T00:17:55;9.52;;;4.63;;
43626;SDS011;29217;52.586;13.442;2023-08-12T00:20:21;5.63;;;4.22;;
43626;SDS011;29217;52.586;13.442;2023-08-12T00:22:46;10.98;;;4.80;;
43626;SDS011;29217;52.586;13.442;2023-08-12T00:25:12;7.20;;;4.18;;
43626;SDS011;29217;52.586;13.442;2023-08-12T00:27:38;9.35;;;4.00;;
43626;SDS011;29217;52.586;13.442;2023-08-12T00:30:04;7.18;;;4.28;;
43626;SDS011;29217;52.586;13.442;2023-08-12T00:32:30;7.45;;;4.65;;
43626;SDS011;29217;52.586;13.442;2023-08-12T00:34:55;7.80;;;4.28;;
43626;SDS011;29217;52.586;13.442;2023-08-12T00:37:21;6.22;;;4.47;;
43626;SDS011;29217;52.586;13.442;2023-08-12T00:39:47;8.40;;;4.50;;
43626;SDS011;29217;52.586;13.442;2023-08-12T00:42:12;8.00;;;4.78;;
43626;SDS011;29217;52.586;13.442;2023-08-12T00:44:38;7.20;;;4.63;;
43626;SDS011;29217;52.586;13.442;2023-08-12T00:47:04;6.43;;;4.20;;
43626;SDS011;29217;52.586;13.442;2023-08-12T00:49:30;8.60;;;5.10;;
43626;SDS011;29217;52.586;13.442;2023-08-12T00:51:57;7.90;;;4.35;;
43626;SDS011;29217;52.586;13.442;2023-08-12T00:54:24;6.07;;;4.22;;
43626;SDS011;29217;52.586;13.442;2023-08-12T00:56:51;6.15;;;4.30;;
43626;SDS011;29217;52.586;13.442;2023-08-12T00:59:18;6.22;;;4.10;;
43626;SDS011;29217;52.586;13.442;2023-08-12T01:01:45;5.43;;;4.28;;
43626;SDS011;29217;52.586;13.442;2023-08-12T01:04:12;8.55;;;4.70;;
43626;SDS011;29217;52.586;13.442;2023-08-12T01:06:38;10.60;;;4.95;;
43626;SDS011;29217;52.586;13.442;2023-08-12T01:09:04;5.47;;;4.30;;
43626;SDS011;29217;52.586;13.442;2023-08-12T01:17:14;4.47;;;4.07;;
43626;SDS011;29217;52.586;13.442;2023-08-12T01:19:41;6.43;;;4.72;;
43626;SDS011;29217;52.586;13.442;2023-08-12T01:22:09;8.52;;;4.35;;
43626;SDS011;29217;52.586;13.442;2023-08-12T01:24:37;4.95;;;4.45;;
43626;SDS011;29217;52.586;13.442;2023-08-12T01:27:04;7.22;;;4.65;;
43626;SDS011;29217;52.586;13.442;2023-08-12T01:29:31;20.38;;;5.70;;
43626;SDS011;29217;52.586;13.442;2023-08-12T01:32:01;7.38;;;4.70;;
43626;SDS011;29217;52.586;13.442;2023-08-12T01:34:47;10.73;;;4.35;;
43626;SDS011;29217;52.586;13.442;2023-08-12T01:37:33;7.43;;;5.00;;
43626;SDS011;29217;52.586;13.442;2023-08-12T01:40:02;5.53;;;4.47;;
43626;SDS011;29217;52.586;13.442;2023-08-12T01:42:29;8.02;;;4.80;;
43626;SDS011;29217;52.586;13.442;2023-08-12T01:44:58;6.05;;;4.20;;
43626;SDS011;29217;52.586;13.442;2023-08-12T01:47:26;6.00;;;4.20;;
43626;SDS011;29217;52.586;13.442;2023-08-12T01:49:52;9.35;;;4.28;;
43626;SDS011;29217;52.586;13.442;2023-08-12T01:52:17;10.75;;;4.55;;
43626;SDS011;29217;52.586;13.442;2023-08-12T01:54:43;6.18;;;4.55;;
43626;SDS011;29217;52.586;13.442;2023-08-12T01:57:09;6.32;;;4.72;;
43626;SDS011;29217;52.586;13.442;2023-08-12T01:59:35;6.40;;;4.35;;
43626;SDS011;29217;52.586;13.442;2023-08-12T02:02:01;7.43;;;5.05;;
43626;SDS011;29217;52.586;13.442;2023-08-12T02:04:26;6.22;;;4.40;;
43626;SDS011;29217;52.586;13.442;2023-08-12T02:06:53;6.35;;;4.25;;
43626;SDS011;29217;52.586;13.442;2023-08-12T02:09:19;8.25;;;4.55;;
43626;SDS011;29217;52.586;13.442;2023-08-12T02:11:45;7.07;;;4.57;;
43626;SDS011;29217;52.586;13.442;2023-08-12T02:14:10;9.50;;;4.55;;
43626;SDS011;29217;52.586;13.442;2023-08-12T02:16:36;7.35;;;5.07;;
43626;SDS011;29217;52.586;13.442;2023-08-12T02:19:02;8.43;;;4.70;;
43626;SDS011;29217;52.586;13.442;2023-08-12T02:21:27;6.05;;;4.40;;
43626;SDS011;29217;52.586;13.442;2023-08-12T02:23:53;5.72;;;4.35;;
43626;SDS011;29217;52.586;13.442;2023-08-12T02:26:18;7.20;;;4.90;;
43626;SDS011;29217;52.586;13.442;2023-08-12T02:28:44;8.52;;;4.93;;
43626;SDS011;29217;52.586;13.442;2023-08-12T02:31:09;6.38;;;4.78;;
43626;SDS011;29217;52.586;13.442;2023-08-12T02:33:35;9.20;;;4.88;;
43626;SDS011;29217;52.586;13.442;2023-08-12T02:36:01;7.50;;;5.15;;
43626;SDS011;29217;52.586;13.442;2023-08-12T02:38:26;5.75;;;4.57;;
43626;SDS011;29217;52.586;13.442;2023-08-12T02:40:52;7.68;;;4.90;;
43626;SDS011;29217;52.586;13.442;2023-08-12T02:43:17;5.95;;;4.80;;
43626;SDS011;29217;52.586;13.442;2023-08-12T02:45:43;11.35;;;5.05;;
43626;SDS011;29217;52.586;13.442;2023-08-12T02:48:11;10.65;;;5.65;;
43626;SDS011;29217;52.586;13.442;2023-08-12T02:50:37;9.93;;;4.60;;
43626;SDS011;29217;52.586;13.442;2023-08-12T02:53:04;5.85;;;4.72;;
43626;SDS011;29217;52.586;13.442;2023-08-12T02:55:30;8.05;;;4.75;;
43626;SDS011;29217;52.586;13.442;2023-08-12T02:57:59;6.03;;;4.60;;
43626;SDS011;29217;52.586;13.442;2023-08-12T03:00:26;7.18;;;4.80;;
43626;SDS011;29217;52.586;13.442;2023-08-12T03:02:52;8.70;;;5.15;;
43626;SDS011;29217;52.586;13.442;2023-08-12T03:05:18;6.93;;;5.15;;
43626;SDS011;29217;52.586;13.442;2023-08-12T03:07:43;7.82;;;4.97;;
43626;SDS011;29217;52.586;13.442;2023-08-12T03:10:10;6.70;;;4.95;;
43626;SDS011;29217;52.586;13.442;2023-08-12T03:12:35;6.13;;;4.60;;
43626;SDS011;29217;52.586;13.442;2023-08-12T03:15:02;8.38;;;5.30;;
43626;SDS011;29217;52.586;13.442;2023-08-12T03:17:28;7.20;;;5.38;;
43626;SDS011;29217;52.586;13.442;2023-08-12T03:19:53;9.98;;;5.82;;
43626;SDS011;29217;52.586;13.442;2023-08-12T03:22:19;45.83;;;5.72;;
43626;SDS011;29217;52.586;13.442;2023-08-12T03:24:45;29.30;;;5.90;;
43626;SDS011;29217;52.586;13.442;2023-08-12T03:27:11;18.65;;;5.47;;
43626;SDS011;29217;52.586;13.442;2023-08-12T03:29:37;15.68;;;5.57;;
43626;SDS011;29217;52.586;13.442;2023-08-12T03:32:03;9.73;;;5.35;;
43626;SDS011;29217;52.586;13.442;2023-08-12T03:34:29;8.27;;;5.18;;
43626;SDS011;29217;52.586;13.442;2023-08-12T03:36:54;6.88;;;4.72;;
43626;SDS011;29217;52.586;13.442;2023-08-12T03:39:20;7.57;;;5.07;;
43626;SDS011;29217;52.586;13.442;2023-08-12T03:41:46;10.32;;;5.18;;
43626;SDS011;29217;52.586;13.442;2023-08-12T03:44:11;7.53;;;5.05;;
43626;SDS011;29217;52.586;13.442;2023-08-12T03:46:37;6.53;;;5.00;;
43626;SDS011;29217;52.586;13.442;2023-08-12T03:49:02;11.68;;;5.55;;
43626;SDS011;29217;52.586;13.442;2023-08-12T03:51:28;7.03;;;5.38;;
43626;SDS011;29217;52.586;13.442;2023-08-12T03:53:54;8.07;;;5.68;;
43626;SDS011;29217;52.586;13.442;2023-08-12T03:56:19;8.90;;;5.50;;
43626;SDS011;29217;52.586;13.442;2023-08-12T03:58:45;7.32;;;6.00;;
43626;SDS011;29217;52.586;13.442;2023-08-12T04:01:10;5.82;;;5.03;;
43626;SDS011;29217;52.586;13.442;2023-08-12T04:03:36;9.23;;;5.07;;
43626;SDS011;29217;52.586;13.442;2023-08-12T04:06:02;7.03;;;5.40;;
43626;SDS011;29217;52.586;13.442;2023-08-12T04:08:28;5.38;;;4.75;;
43626;SDS011;29217;52.586;13.442;2023-08-12T04:10:54;12.85;;;5.93;;
43626;SDS011;29217;52.586;13.442;2023-08-12T04:13:19;5.75;;;5.00;;
43626;SDS011;29217;52.586;13.442;2023-08-12T04:15:48;6.93;;;5.05;;
43626;SDS011;29217;52.586;13.442;2023-08-12T04:18:15;9.32;;;6.00;;
43626;SDS011;29217;52.586;13.442;2023-08-12T04:20:40;7.72;;;5.78;;
43626;SDS011;29217;52.586;13.442;2023-08-12T04:23:06;6.47;;;5.47;;
43626;SDS011;29217;52.586;13.442;2023-08-12T04:25:31;7.03;;;5.30;;
43626;SDS011;29217;52.586;13.442;2023-08-12T04:27:57;8.13;;;5.43;;
43626;SDS011;29217;52.586;13.442;2023-08-12T04:30:23;6.70;;;5.10;;
43626;SDS011;29217;52.586;13.442;2023-08-12T04:32:49;7.38;;;5.50;;
43626;SDS011;29217;52.586;13.442;2023-08-12T04:35:14;8.93;;;5.68;;
43626;SDS011;29217;52.586;13.442;2023-08-12T04:37:40;7.45;;;5.07;;
43626;SDS011;29217;52.586;13.442;2023-08-12T04:40:06;6.82;;;5.35;;
43626;SDS011;29217;52.586;13.442;2023-08-12T04:42:32;8.57;;;5.05;;
43626;SDS011;29217;52.586;13.442;2023-08-12T04:44:58;7.20;;;5.60;;
43626;SDS011;29217;52.586;13.442;2023-08-12T04:47:24;8.63;;;5.43;;
43626;SDS011;29217;52.586;13.442;2023-08-12T04:49:49;10.25;;;5.65;;
43626;SDS011;29217;52.586;13.442;2023-08-12T04:52:15;12.90;;;6.05;;
43626;SDS011;29217;52.586;13.442;2023-08-12T04:54:40;10.20;;;5.97;;
43626;SDS011;29217;52.586;13.442;2023-08-12T04:57:06;8.25;;;5.82;;
43626;SDS011;29217;52.586;13.442;2023-08-12T04:59:32;10.40;;;6.55;;
43626;SDS011;29217;52.586;13.442;2023-08-12T05:01:57;7.93;;;6.38;;
43626;SDS011;29217;52.586;13.442;2023-08-12T05:04:23;7.38;;;5.82;;
43626;SDS011;29217;52.586;13.442;2023-08-12T05:06:48;13.25;;;5.63;;
43626;SDS011;29217;52.586;13.442;2023-08-12T05:09:14;5.97;;;5.38;;
43626;SDS011;29217;52.586;13.442;2023-08-12T05:11:39;8.68;;;5.70;;
43626;SDS011;29217;52.586;13.442;2023-08-12T05:14:05;6.50;;;4.75;;
43626;SDS011;29217;52.586;13.442;2023-08-12T05:16:31;7.55;;;4.85;;
43626;SDS011;29217;52.586;13.442;2023-08-12T05:18:56;9.70;;;5.68;;
43626;SDS011;29217;52.586;13.442;2023-08-12T05:21:22;9.15;;;4.50;;
43626;SDS011;29217;52.586;13.442;2023-08-12T05:23:48;9.43;;;4.30;;
43626;SDS011;29217;52.586;13.442;2023-08-12T05:26:13;4.93;;;3.85;;
43626;SDS011;29217;52.586;13.442;2023-08-12T05:28:39;7.72;;;4.00;;
43626;SDS011;29217;52.586;13.442;2023-08-12T05:31:05;5.00;;;3.67;;
43626;SDS011;29217;52.586;13.442;2023-08-12T05:33:30;10.50;;;3.40;;
43626;SDS011;29217;52.586;13.442;2023-08-12T05:35:56;10.07;;;4.05;;
43626;SDS011;29217;52.586;13.442;2023-08-12T05:38:22;6.50;;;3.55;;
43626;SDS011;29217;52.586;13.442;2023-08-12T05:40:48;7.82;;;3.45;;
43626;SDS011;29217;52.586;13.442;2023-08-12T05:43:13;10.93;;;4.43;;
43626;SDS011;29217;52.586;13.442;2023-08-12T05:45:39;6.60;;;3.83;;
43626;SDS011;29217;52.586;13.442;2023-08-12T05:48:05;5.10;;;3.58;;
43626;SDS011;29217;52.586;13.442;2023-08-12T05:50:30;13.80;;;3.63;;
43626;SDS011;29217;52.586;13.442;2023-08-12T05:52:56;19.20;;;4.00;;
43626;SDS011;29217;52.586;13.442;2023-08-12T05:55:22;7.15;;;3.45;;
43626;SDS011;29217;52.586;13.442;2023-08-12T05:57:47;7.90;;;3.40;;
43626;SDS011;29217;52.586;13.442;2023-08-12T06:00:13;5.03;;;3.40;;
43626;SDS011;29217;52.586;13.442;2023-08-12T06:02:38;4.95;;;3.25;;
43626;SDS011;29217;52.586;13.442;2023-08-12T06:05:04;6.15;;;3.42;;
43626;SDS011;29217;52.586;13.442;2023-08-12T06:07:30;4.35;;;3.30;;
43626;SDS011;29217;52.586;13.442;2023-08-12T06:09:56;4.93;;;3.60;;
43626;SDS011;29217;52.586;13.442;2023-08-12T06:12:21;4.88;;;3.60;;
43626;SDS011;29217;52.586;13.442;2023-08-12T06:14:47;6.85;;;3.45;;
43626;SDS011;29217;52.586;13.442;2023-08-12T06:17:13;5.05;;;3.75;;
43626;SDS011;29217;52.586;13.442;2023-08-12T06:19:38;7.07;;;3.72;;
43626;SDS011;29217;52.586;13.442;2023-08-12T06:22:04;11.05;;;3.75;;
43626;SDS011;29217;52.586;13.442;2023-08-12T06:24:29;8.00;;;3.60;;
43626;SDS011;29217;52.586;13.442;2023-08-12T06:26:55;8.55;;;4.20;;
43626;SDS011;29217;52.586;13.442;2023-08-12T06:29:20;8.27;;;3.78;;
43626;SDS011;29217;52.586;13.442;2023-08-12T06:31:46;15.23;;;4.00;;
43626;SDS011;29217;52.586;13.442;2023-08-12T06:34:11;14.57;;;3.65;;
43626;SDS011;29217;52.586;13.442;2023-08-12T06:36:37;6.38;;;3.70;;
43626;SDS011;29217;52.586;13.442;2023-08-12T06:39:03;9.32;;;3.75;;
43626;SDS011;29217;52.586;13.442;2023-08-12T06:41:28;6.72;;;3.90;;
43626;SDS011;29217;52.586;13.442;2023-08-12T06:43:54;7.97;;;3.53;;
43626;SDS011;29217;52.586;13.442;2023-08-12T06:46:20;3.65;;;3.22;;
43626;SDS011;29217;52.586;13.442;2023-08-12T06:48:45;9.80;;;4.45;;
43626;SDS011;29217;52.586;13.442;2023-08-12T06:51:11;4.78;;;3.47;;
43626;SDS011;29217;52.586;13.442;2023-08-12T06:53:37;6.43;;;4.20;;
43626;SDS011;29217;52.586;13.442;2023-08-12T06:56:03;5.68;;;3.63;;
43626;SDS011;29217;52.586;13.442;2023-08-12T06:58:29;6.07;;;3.83;;
43626;SDS011;29217;52.586;13.442;2023-08-12T07:00:55;4.97;;;3.53;;
43626;SDS011;29217;52.586;13.442;2023-08-12T07:03:21;7.90;;;3.60;;
43626;SDS011;29217;52.586;13.442;2023-08-12T07:05:47;8.13;;;3.70;;
43626;SDS011;29217;52.586;13.442;2023-08-12T07:08:13;5.28;;;3.55;;
43626;SDS011;29217;52.586;13.442;2023-08-12T07:10:40;16.75;;;3.40;;
43626;SDS011;29217;52.586;13.442;2023-08-12T07:13:06;5.55;;;3.58;;
43626;SDS011;29217;52.586;13.442;2023-08-12T07:15:31;7.55;;;3.58;;
43626;SDS011;29217;52.586;13.442;2023-08-12T07:17:57;5.80;;;3.40;;
43626;SDS011;29217;52.586;13.442;2023-08-12T07:20:25;5.45;;;3.50;;
43626;SDS011;29217;52.586;13.442;2023-08-12T07:22:51;6.53;;;3.30;;
43626;SDS011;29217;52.586;13.442;2023-08-12T07:25:17;7.57;;;3.72;;
43626;SDS011;29217;52.586;13.442;2023-08-12T07:27:43;6.97;;;3.90;;
43626;SDS011;29217;52.586;13.442;2023-08-12T07:30:08;5.88;;;3.53;;
43626;SDS011;29217;52.586;13.442;2023-08-12T07:32:36;8.73;;;4.00;;
43626;SDS011;29217;52.586;13.442;2023-08-12T07:35:02;10.68;;;3.97;;
43626;SDS011;29217;52.586;13.442;2023-08-12T07:37:30;7.70;;;3.72;;
43626;SDS011;29217;52.586;13.442;2023-08-12T07:39:55;5.72;;;3.08;;
43626;SDS011;29217;52.586;13.442;2023-08-12T07:42:21;4.32;;;2.95;;
43626;SDS011;29217;52.586;13.442;2023-08-12T07:44:46;8.27;;;3.45;;
43626;SDS011;29217;52.586;13.442;2023-08-12T07:47:12;6.30;;;3.35;;
43626;SDS011;29217;52.586;13.442;2023-08-12T07:49:38;6.88;;;3.30;;
43626;SDS011;29217;52.586;13.442;2023-08-12T07:52:03;8.18;;;3.67;;
43626;SDS011;29217;52.586;13.442;2023-08-12T07:54:30;4.47;;;3.30;;
43626;SDS011;29217;52.586;13.442;2023-08-12T07:56:55;7.90;;;3.47;;
43626;SDS011;29217;52.586;13.442;2023-08-12T07:59:21;7.40;;;3.78;;
43626;SDS011;29217;52.586;13.442;2023-08-12T08:01:46;5.72;;;3.47;;
43626;SDS011;29217;52.586;13.442;2023-08-12T08:04:12;6.70;;;3.20;;
43626;SDS011;29217;52.586;13.442;2023-08-12T08:06:38;5.43;;;3.42;;
43626;SDS011;29217;52.586;13.442;2023-08-12T08:09:03;6.10;;;3.60;;
43626;SDS011;29217;52.586;13.442;2023-08-12T08:11:29;7.82;;;3.80;;
43626;SDS011;29217;52.586;13.442;2023-08-12T08:13:57;5.43;;;3.38;;
43626;SDS011;29217;52.586;13.442;2023-08-12T08:16:23;13.32;;;4.30;;
43626;SDS011;29217;52.586;13.442;2023-08-12T08:18:49;7.82;;;3.30;;
43626;SDS011;29217;52.586;13.442;2023-08-12T08:21:15;7.20;;;3.40;;
43626;SDS011;29217;52.586;13.442;2023-08-12T08:23:41;5.10;;;3.15;;
43626;SDS011;29217;52.586;13.442;2023-08-12T08:26:08;6.07;;;3.58;;
43626;SDS011;29217;52.586;13.442;2023-08-12T08:28:34;7.35;;;3.53;;
43626;SDS011;29217;52.586;13.442;2023-08-12T08:30:59;6.45;;;3.80;;
43626;SDS011;29217;52.586;13.442;2023-08-12T08:33:25;6.15;;;3.83;;
43626;SDS011;29217;52.586;13.442;2023-08-12T08:35:51;7.10;;;3.30;;
43626;SDS011;29217;52.586;13.442;2023-08-12T08:38:18;7.47;;;3.60;;
43626;SDS011;29217;52.586;13.442;2023-08-12T08:40:44;5.05;;;3.40;;
43626;SDS011;29217;52.586;13.442;2023-08-12T08:43:09;9.07;;;3.88;;
43626;SDS011;29217;52.586;13.442;2023-08-12T08:45:40;8.68;;;3.88;;
43626;SDS011;29217;52.586;13.442;2023-08-12T08:48:07;9.40;;;3.85;;
43626;SDS011;29217;52.586;13.442;2023-08-12T08:50:34;14.63;;;3.85;;
43626;SDS011;29217;52.586;13.442;2023-08-12T08:53:02;7.63;;;3.78;;
43626;SDS011;29217;52.586;13.442;2023-08-12T08:55:29;12.30;;;4.18;;
43626;SDS011;29217;52.586;13.442;2023-08-12T08:57:56;6.82;;;4.40;;
43626;SDS011;29217;52.586;13.442;2023-08-12T09:00:21;6.97;;;4.20;;
43626;SDS011;29217;52.586;13.442;2023-08-12T09:02:47;5.97;;;4.00;;
43626;SDS011;29217;52.586;13.442;2023-08-12T09:05:15;12.32;;;4.55;;
43626;SDS011;29217;52.586;13.442;2023-08-12T09:07:41;6.15;;;3.90;;
43626;SDS011;29217;52.586;13.442;2023-08-12T09:10:09;6.15;;;4.05;;
43626;SDS011;29217;52.586;13.442;2023-08-12T09:12:35;8.82;;;4.25;;
43626;SDS011;29217;52.586;13.442;2023-08-12T09:15:01;6.90;;;4.63;;
43626;SDS011;29217;52.586;13.442;2023-08-12T09:17:28;8.73;;;3.80;;
43626;SDS011;29217;52.586;13.442;2023-08-12T09:19:54;9.52;;;4.18;;
43626;SDS011;29217;52.586;13.442;2023-08-12T09:22:20;12.80;;;4.75;;
43626;SDS011;29217;52.586;13.442;2023-08-12T09:24:49;7.03;;;3.90;;
43626;SDS011;29217;52.586;13.442;2023-08-12T09:27:16;9.27;;;3.65;;
43626;SDS011;29217;52.586;13.442;2023-08-12T09:29:43;11.75;;;3.85;;
43626;SDS011;29217;52.586;13.442;2023-08-12T09:32:12;10.40;;;4.70;;
43626;SDS011;29217;52.586;13.442;2023-08-12T09:34:50;9.75;;;4.15;;
43626;SDS011;29217;52.586;13.442;2023-08-12T09:37:17;7.60;;;4.07;;
43626;SDS011;29217;52.586;13.442;2023-08-12T09:39:44;8.50;;;4.15;;
43626;SDS011;29217;52.586;13.442;2023-08-12T09:42:10;9.15;;;4.00;;
43626;SDS011;29217;52.586;13.442;2023-08-12T09:44:36;8.02;;;3.85;;
43626;SDS011;29217;52.586;13.442;2023-08-12T09:47:02;6.47;;;4.22;;
43626;SDS011;29217;52.586;13.442;2023-08-12T09:49:28;13.73;;;3.88;;
43626;SDS011;29217;52.586;13.442;2023-08-12T09:51:54;18.20;;;4.22;;
43626;SDS011;29217;52.586;13.442;2023-08-12T09:54:21;7.15;;;3.95;;
43626;SDS011;29217;52.586;13.442;2023-08-12T09:56:47;6.07;;;3.72;;
43626;SDS011;29217;52.586;13.442;2023-08-12T09:59:16;7.70;;;3.60;;
43626;SDS011;29217;52.586;13.442;2023-08-12T10:01:45;5.78;;;3.78;;
43626;SDS011;29217;52.586;13.442;2023-08-12T10:04:12;9.57;;;3.80;;
43626;SDS011;29217;52.586;13.442;2023-08-12T10:06:41;7.78;;;4.00;;
43626;SDS011;29217;52.586;13.442;2023-08-12T10:09:08;10.93;;;3.70;;
43626;SDS011;29217;52.586;13.442;2023-08-12T10:11:36;6.13;;;3.80;;
43626;SDS011;29217;52.586;13.442;2023-08-12T10:14:05;7.35;;;3.88;;
43626;SDS011;29217;52.586;13.442;2023-08-12T10:16:31;5.95;;;3.80;;
43626;SDS011;29217;52.586;13.442;2023-08-12T10:18:58;6.57;;;3.83;;
43626;SDS011;29217;52.586;13.442;2023-08-12T10:21:25;7.85;;;4.18;;
43626;SDS011;29217;52.586;13.442;2023-08-12T10:23:51;6.55;;;4.18;;
43626;SDS011;29217;52.586;13.442;2023-08-12T10:26:19;14.18;;;4.57;;
43626;SDS011;29217;52.586;13.442;2023-08-12T10:28:45;8.43;;;4.22;;
43626;SDS011;29217;52.586;13.442;2023-08-12T10:31:13;8.65;;;4.18;;
43626;SDS011;29217;52.586;13.442;2023-08-12T10:33:39;9.65;;;4.28;;
43626;SDS011;29217;52.586;13.442;2023-08-12T10:36:06;10.35;;;4.28;;
43626;SDS011;29217;52.586;13.442;2023-08-12T10:38:32;7.40;;;4.50;;
43626;SDS011;29217;52.586;13.442;2023-08-12T10:49:01;9.70;;;5.53;;
43626;SDS011;29217;52.586;13.442;2023-08-12T10:51:41;10.98;;;4.40;;
43626;SDS011;29217;52.586;13.442;2023-08-12T10:57:03;7.05;;;4.20;;
43626;SDS011;29217;52.586;13.442;2023-08-12T11:02:15;9.38;;;4.10;;
43626;SDS011;29217;52.586;13.442;2023-08-12T11:04:58;7.15;;;4.00;;
43626;SDS011;29217;52.586;13.442;2023-08-12T11:07:33;7.03;;;3.97;;
43626;SDS011;29217;52.586;13.442;2023-08-12T11:10:03;11.05;;;4.30;;
43626;SDS011;29217;52.586;13.442;2023-08-12T11:12:31;7.75;;;4.40;;
43626;SDS011;29217;52.586;13.442;2023-08-12T11:14:58;6.90;;;4.20;;
43626;SDS011;29217;52.586;13.442;2023-08-12T11:17:36;6.68;;;4.35;;
43626;SDS011;29217;52.586;13.442;2023-08-12T11:20:04;9.05;;;4.57;;
43626;SDS011;29217;52.586;13.442;2023-08-12T11:22:32;7.00;;;4.20;;
43626;SDS011;29217;52.586;13.442;2023-08-12T11:25:00;8.45;;;4.57;;
43626;SDS011;29217;52.586;13.442;2023-08-12T11:27:26;14.15;;;6.75;;
43626;SDS011;29217;52.586;13.442;2023-08-12T11:29:52;11.88;;;4.60;;
43626;SDS011;29217;52.586;13.442;2023-08-12T11:32:18;12.57;;;4.90;;
43626;SDS011;29217;52.586;13.442;2023-08-12T11:34:44;6.93;;;4.30;;
43626;SDS011;29217;52.586;13.442;2023-08-12T11:37:10;7.20;;;4.85;;
43626;SDS011;29217;52.586;13.442;2023-08-12T11:39:35;9.02;;;4.50;;
43626;SDS011;29217;52.586;13.442;2023-08-12T11:42:02;8.25;;;4.68;;
43626;SDS011;29217;52.586;13.442;2023-08-12T11:44:28;9.45;;;4.55;;
43626;SDS011;29217;52.586;13.442;2023-08-12T11:46:54;5.97;;;4.40;;
43626;SDS011;29217;52.586;13.442;2023-08-12T11:49:19;6.25;;;4.32;;
43626;SDS011;29217;52.586;13.442;2023-08-12T11:51:45;7.50;;;4.43;;
43626;SDS011;29217;52.586;13.442;2023-08-12T11:54:13;5.25;;;4.20;;
43626;SDS011;29217;52.586;13.442;2023-08-12T11:56:40;10.57;;;4.68;;
43626;SDS011;29217;52.586;13.442;2023-08-12T11:59:06;6.35;;;3.97;;
43626;SDS011;29217;52.586;13.442;2023-08-12T12:01:32;7.55;;;3.85;;
43626;SDS011;29217;52.586;13.442;2023-08-12T12:03:59;6.35;;;3.55;;
43626;SDS011;29217;52.586;13.442;2023-08-12T12:06:32;8.48;;;3.55;;
43626;SDS011;29217;52.586;13.442;2023-08-12T12:09:01;6.03;;;3.40;;
43626;SDS011;29217;52.586;13.442;2023-08-12T12:11:30;5.60;;;3.65;;
43626;SDS011;29217;52.586;13.442;2023-08-12T12:13:59;6.00;;;3.83;;
43626;SDS011;29217;52.586;13.442;2023-08-12T12:16:35;12.50;;;3.95;;
43626;SDS011;29217;52.586;13.442;2023-08-12T12:19:21;8.90;;;4.38;;
43626;SDS011;29217;52.586;13.442;2023-08-12T12:21:48;9.43;;;4.05;;
43626;SDS011;29217;52.586;13.442;2023-08-12T12:24:15;6.43;;;3.67;;
43626;SDS011;29217;52.586;13.442;2023-08-12T12:26:42;5.05;;;3.80;;
43626;SDS011;29217;52.586;13.442;2023-08-12T12:29:09;5.55;;;3.80;;
43626;SDS011;29217;52.586;13.442;2023-08-12T12:31:37;5.80;;;4.03;;
43626;SDS011;29217;52.586;13.442;2023-08-12T12:34:03;5.50;;;4.25;;
43626;SDS011;29217;52.586;13.442;2023-08-12T12:36:29;9.65;;;4.00;;
43626;SDS011;29217;52.586;13.442;2023-08-12T12:38:56;4.20;;;3.80;;
43626;SDS011;29217;52.586;13.442;2023-08-12T12:41:22;5.00;;;3.72;;
43626;SDS011;29217;52.586;13.442;2023-08-12T12:43:47;5.35;;;3.92;;
43626;SDS011;29217;52.586;13.442;2023-08-12T12:46:14;9.70;;;4.13;;
43626;SDS011;29217;52.586;13.442;2023-08-12T12:48:40;7.57;;;4.03;;
43626;SDS011;29217;52.586;13.442;2023-08-12T12:51:07;7.95;;;3.72;;
43626;SDS011;29217;52.586;13.442;2023-08-12T12:53:32;8.90;;;3.58;;
43626;SDS011;29217;52.586;13.442;2023-08-12T12:55:58;13.35;;;4.05;;
43626;SDS011;29217;52.586;13.442;2023-08-12T12:58:28;10.65;;;3.83;;
43626;SDS011;29217;52.586;13.442;2023-08-12T13:00:55;8.52;;;3.92;;
43626;SDS011;29217;52.586;13.442;2023-08-12T13:03:21;4.40;;;3.65;;
43626;SDS011;29217;52.586;13.442;2023-08-12T13:05:46;5.90;;;3.90;;
43626;SDS011;29217;52.586;13.442;2023-08-12T13:08:12;8.00;;;3.45;;
43626;SDS011;29217;52.586;13.442;2023-08-12T13:10:37;5.60;;;3.80;;
43626;SDS011;29217;52.586;13.442;2023-08-12T13:13:03;6.95;;;3.70;;
43626;SDS011;29217;52.586;13.442;2023-08-12T13:15:29;5.53;;;3.40;;
43626;SDS011;29217;52.586;13.442;2023-08-12T13:17:55;7.10;;;3.85;;
43626;SDS011;29217;52.586;13.442;2023-08-12T13:20:21;8.60;;;3.58;;
43626;SDS011;29217;52.586;13.442;2023-08-12T13:22:46;6.72;;;3.65;;
43626;SDS011;29217;52.586;13.442;2023-08-12T13:25:12;11.20;;;3.88;;
43626;SDS011;29217;52.586;13.442;2023-08-12T13:27:38;7.93;;;3.70;;
43626;SDS011;29217;52.586;13.442;2023-08-12T13:30:04;3.83;;;3.20;;
43626;SDS011;29217;52.586;13.442;2023-08-12T13:32:30;4.80;;;3.40;;
43626;SDS011;29217;52.586;13.442;2023-08-12T13:34:55;10.98;;;3.40;;
43626;SDS011;29217;52.586;13.442;2023-08-12T13:37:21;7.78;;;3.63;;
43626;SDS011;29217;52.586;13.442;2023-08-12T13:39:47;5.07;;;3.55;;
43626;SDS011;29217;52.586;13.442;2023-08-12T13:42:12;6.45;;;4.03;;
43626;SDS011;29217;52.586;13.442;2023-08-12T13:44:38;6.60;;;3.58;;
43626;SDS011;29217;52.586;13.442;2023-08-12T13:47:04;4.57;;;3.35;;
43626;SDS011;29217;52.586;13.442;2023-08-12T13:49:29;7.53;;;3.42;;
43626;SDS011;29217;52.586;13.442;2023-08-12T13:51:55;4.22;;;3.53;;
43626;SDS011;29217;52.586;13.442;2023-08-12T13:54:21;8.23;;;3.50;;
43626;SDS011;29217;52.586;13.442;2023-08-12T13:56:46;6.32;;;3.55;;
43626;SDS011;29217;52.586;13.442;2023-08-12T13:59:12;7.90;;;3.58;;
43626;SDS011;29217;52.586;13.442;2023-08-12T14:01:37;4.18;;;3.47;;
43626;SDS011;29217;52.586;13.442;2023-08-12T14:04:03;9.07;;;3.38;;
43626;SDS011;29217;52.586;13.442;2023-08-12T14:06:29;16.17;;;3.65;;
43626;SDS011;29217;52.586;13.442;2023-08-12T14:08:54;4.47;;;3.22;;
43626;SDS011;29217;52.586;13.442;2023-08-12T14:11:20;4.82;;;3.40;;
43626;SDS011;29217;52.586;13.442;2023-08-12T14:13:45;5.85;;;3.35;;
43626;SDS011;29217;52.586;13.442;2023-08-12T14:16:11;3.72;;;2.88;;
43626;SDS011;29217;52.586;13.442;2023-08-12T14:18:37;4.05;;;2.88;;
43626;SDS011;29217;52.586;13.442;2023-08-12T14:21:03;5.50;;;3.47;;
43626;SDS011;29217;52.586;13.442;2023-08-12T14:23:29;5.80;;;3.10;;
43626;SDS011;29217;52.586;13.442;2023-08-12T14:25:55;5.85;;;3.05;;
43626;SDS011;29217;52.586;13.442;2023-08-12T14:28:20;8.07;;;3.40;;
43626;SDS011;29217;52.586;13.442;2023-08-12T14:30:46;7.72;;;3.03;;
43626;SDS011;29217;52.586;13.442;2023-08-12T14:33:11;3.92;;;2.90;;
43626;SDS011;29217;52.586;13.442;2023-08-12T14:35:37;4.43;;;3.10;;
43626;SDS011;29217;52.586;13.442;2023-08-12T14:38:03;7.88;;;2.75;;
43626;SDS011;29217;52.586;13.442;2023-08-12T14:40:28;5.43;;;2.92;;
43626;SDS011;29217;52.586;13.442;2023-08-12T14:42:54;4.82;;;3.13;;
43626;SDS011;29217;52.586;13.442;2023-08-12T14:45:19;2.80;;;2.50;;
43626;SDS011;29217;52.586;13.442;2023-08-12T14:47:45;9.75;;;3.33;;